sensor_id;sensor_type;location;lat;lon;timestamp;P1;durP1;ratioP1;P2;durP2;ratioP2
61840;SDS011;47773;53.174;6.614;2022-11-25T00:03:40;9.05;;;2.63;;
61840;SDS011;47773;53.174;6.614;2022-11-25T00:08:44;14.50;;;3.10;;
61840;SDS011;47773;53.174;6.614;2022-11-25T00:11:11;16.83;;;2.83;;
61840;SDS011;47773;53.174;6.614;2022-11-25T00:13:37;11.43;;;2.30;;
61840;SDS011;47773;53.174;6.614;2022-11-25T00:16:14;13.73;;;2.63;;
61840;SDS011;47773;53.174;6.614;2022-11-25T00:18:45;13.63;;;2.50;;
61840;SDS011;47773;53.174;6.614;2022-11-25T00:21:13;11.38;;;2.40;;
61840;SDS011;47773;53.174;6.614;2022-11-25T00:23:40;17.17;;;3.40;;
61840;SDS011;47773;53.174;6.614;2022-11-25T00:26:07;17.02;;;2.92;;
61840;SDS011;47773;53.174;6.614;2022-11-25T00:28:37;16.77;;;2.70;;
61840;SDS011;47773;53.174;6.614;2022-11-25T00:31:07;19.67;;;3.03;;
61840;SDS011;47773;53.174;6.614;2022-11-25T00:33:43;14.00;;;3.08;;
61840;SDS011;47773;53.174;6.614;2022-11-25T00:36:16;15.30;;;2.90;;
61840;SDS011;47773;53.174;6.614;2022-11-25T00:38:44;10.23;;;2.63;;
61840;SDS011;47773;53.174;6.614;2022-11-25T00:41:10;14.00;;;3.25;;
61840;SDS011;47773;53.174;6.614;2022-11-25T00:43:55;11.52;;;2.80;;
61840;SDS011;47773;53.174;6.614;2022-11-25T00:46:39;11.75;;;2.60;;
61840;SDS011;47773;53.174;6.614;2022-11-25T00:49:05;14.82;;;3.17;;
61840;SDS011;47773;53.174;6.614;2022-11-25T00:51:31;14.43;;;3.05;;
61840;SDS011;47773;53.174;6.614;2022-11-25T00:53:57;20.83;;;2.85;;
61840;SDS011;47773;53.174;6.614;2022-11-25T00:56:23;17.60;;;2.92;;
61840;SDS011;47773;53.174;6.614;2022-11-25T00:58:48;22.88;;;3.80;;
61840;SDS011;47773;53.174;6.614;2022-11-25T01:01:14;14.18;;;2.83;;
61840;SDS011;47773;53.174;6.614;2022-11-25T01:03:40;27.50;;;3.35;;
61840;SDS011;47773;53.174;6.614;2022-11-25T01:06:07;14.55;;;3.15;;
61840;SDS011;47773;53.174;6.614;2022-11-25T01:08:35;17.45;;;3.05;;
61840;SDS011;47773;53.174;6.614;2022-11-25T01:11:06;14.07;;;2.83;;
61840;SDS011;47773;53.174;6.614;2022-11-25T01:13:34;19.65;;;3.60;;
61840;SDS011;47773;53.174;6.614;2022-11-25T01:16:03;14.80;;;3.40;;
61840;SDS011;47773;53.174;6.614;2022-11-25T01:18:31;15.02;;;3.40;;
61840;SDS011;47773;53.174;6.614;2022-11-25T01:21:07;21.83;;;4.43;;
61840;SDS011;47773;53.174;6.614;2022-11-25T01:23:41;13.85;;;3.13;;
61840;SDS011;47773;53.174;6.614;2022-11-25T01:26:08;13.65;;;2.85;;
61840;SDS011;47773;53.174;6.614;2022-11-25T01:28:35;20.20;;;4.10;;
61840;SDS011;47773;53.174;6.614;2022-11-25T01:31:12;12.98;;;2.53;;
61840;SDS011;47773;53.174;6.614;2022-11-25T01:33:40;16.13;;;3.50;;
61840;SDS011;47773;53.174;6.614;2022-11-25T01:36:11;16.92;;;3.50;;
61840;SDS011;47773;53.174;6.614;2022-11-25T01:38:42;25.50;;;3.22;;
61840;SDS011;47773;53.174;6.614;2022-11-25T01:41:10;25.00;;;3.90;;
61840;SDS011;47773;53.174;6.614;2022-11-25T01:43:37;16.05;;;3.63;;
61840;SDS011;47773;53.174;6.614;2022-11-25T01:46:23;18.13;;;3.35;;
61840;SDS011;47773;53.174;6.614;2022-11-25T01:49:00;12.23;;;2.65;;
61840;SDS011;47773;53.174;6.614;2022-11-25T01:52:13;13.60;;;2.72;;
61840;SDS011;47773;53.174;6.614;2022-11-25T01:54:34;14.35;;;2.80;;
61840;SDS011;47773;53.174;6.614;2022-11-25T01:57:12;16.17;;;3.47;;
61840;SDS011;47773;53.174;6.614;2022-11-25T01:59:43;15.48;;;3.33;;
61840;SDS011;47773;53.174;6.614;2022-11-25T02:02:13;14.18;;;2.97;;
61840;SDS011;47773;53.174;6.614;2022-11-25T02:04:40;15.55;;;2.88;;
61840;SDS011;47773;53.174;6.614;2022-11-25T02:07:08;16.15;;;3.10;;
61840;SDS011;47773;53.174;6.614;2022-11-25T02:09:40;15.05;;;2.97;;
61840;SDS011;47773;53.174;6.614;2022-11-25T02:12:07;19.63;;;3.47;;
61840;SDS011;47773;53.174;6.614;2022-11-25T02:14:33;15.00;;;2.90;;
61840;SDS011;47773;53.174;6.614;2022-11-25T02:16:59;19.52;;;3.05;;
61840;SDS011;47773;53.174;6.614;2022-11-25T02:19:38;18.48;;;3.63;;
61840;SDS011;47773;53.174;6.614;2022-11-25T02:22:39;14.57;;;3.15;;
61840;SDS011;47773;53.174;6.614;2022-11-25T02:25:27;18.60;;;3.13;;
61840;SDS011;47773;53.174;6.614;2022-11-25T02:28:05;14.80;;;3.30;;
61840;SDS011;47773;53.174;6.614;2022-11-25T02:30:34;21.63;;;3.60;;
61840;SDS011;47773;53.174;6.614;2022-11-25T02:33:00;24.20;;;3.58;;
61840;SDS011;47773;53.174;6.614;2022-11-25T02:35:27;16.05;;;3.15;;
61840;SDS011;47773;53.174;6.614;2022-11-25T02:37:59;20.05;;;3.97;;
61840;SDS011;47773;53.174;6.614;2022-11-25T02:40:27;14.63;;;3.30;;
61840;SDS011;47773;53.174;6.614;2022-11-25T02:42:55;10.73;;;2.80;;
61840;SDS011;47773;53.174;6.614;2022-11-25T02:45:31;18.08;;;3.55;;
61840;SDS011;47773;53.174;6.614;2022-11-25T02:48:06;14.77;;;3.47;;
61840;SDS011;47773;53.174;6.614;2022-11-25T02:50:32;11.98;;;3.13;;
61840;SDS011;47773;53.174;6.614;2022-11-25T02:52:57;15.23;;;3.40;;
61840;SDS011;47773;53.174;6.614;2022-11-25T02:55:23;13.55;;;3.20;;
61840;SDS011;47773;53.174;6.614;2022-11-25T02:57:49;18.02;;;3.42;;
61840;SDS011;47773;53.174;6.614;2022-11-25T03:00:14;16.02;;;3.90;;
61840;SDS011;47773;53.174;6.614;2022-11-25T03:02:41;15.35;;;3.50;;
61840;SDS011;47773;53.174;6.614;2022-11-25T03:05:06;13.07;;;3.03;;
61840;SDS011;47773;53.174;6.614;2022-11-25T03:07:32;16.45;;;3.85;;
61840;SDS011;47773;53.174;6.614;2022-11-25T03:09:58;23.55;;;3.78;;
61840;SDS011;47773;53.174;6.614;2022-11-25T03:12:23;12.80;;;3.88;;
61840;SDS011;47773;53.174;6.614;2022-11-25T03:14:49;19.48;;;3.70;;
61840;SDS011;47773;53.174;6.614;2022-11-25T03:17:15;18.05;;;3.60;;
61840;SDS011;47773;53.174;6.614;2022-11-25T03:19:40;14.70;;;3.60;;
61840;SDS011;47773;53.174;6.614;2022-11-25T03:22:06;14.35;;;3.75;;
61840;SDS011;47773;53.174;6.614;2022-11-25T03:24:32;22.17;;;4.07;;
61840;SDS011;47773;53.174;6.614;2022-11-25T03:26:58;17.10;;;4.07;;
61840;SDS011;47773;53.174;6.614;2022-11-25T03:29:23;17.48;;;4.15;;
61840;SDS011;47773;53.174;6.614;2022-11-25T03:31:49;23.52;;;3.75;;
61840;SDS011;47773;53.174;6.614;2022-11-25T03:34:15;16.00;;;3.90;;
61840;SDS011;47773;53.174;6.614;2022-11-25T03:36:40;12.38;;;3.78;;
61840;SDS011;47773;53.174;6.614;2022-11-25T03:39:06;21.33;;;4.35;;
61840;SDS011;47773;53.174;6.614;2022-11-25T03:41:33;14.60;;;4.05;;
61840;SDS011;47773;53.174;6.614;2022-11-25T03:43:58;20.20;;;3.97;;
61840;SDS011;47773;53.174;6.614;2022-11-25T03:46:25;18.45;;;4.40;;
61840;SDS011;47773;53.174;6.614;2022-11-25T03:48:50;21.85;;;4.38;;
61840;SDS011;47773;53.174;6.614;2022-11-25T03:51:16;22.15;;;4.57;;
61840;SDS011;47773;53.174;6.614;2022-11-25T03:53:42;14.30;;;4.70;;
61840;SDS011;47773;53.174;6.614;2022-11-25T03:56:07;15.35;;;4.03;;
61840;SDS011;47773;53.174;6.614;2022-11-25T03:58:33;23.17;;;4.88;;
61840;SDS011;47773;53.174;6.614;2022-11-25T04:00:59;20.90;;;4.90;;
61840;SDS011;47773;53.174;6.614;2022-11-25T04:03:25;19.70;;;4.85;;
61840;SDS011;47773;53.174;6.614;2022-11-25T04:05:52;16.00;;;4.22;;
61840;SDS011;47773;53.174;6.614;2022-11-25T04:08:17;21.60;;;5.18;;
61840;SDS011;47773;53.174;6.614;2022-11-25T04:10:43;14.93;;;3.80;;
61840;SDS011;47773;53.174;6.614;2022-11-25T04:13:09;24.58;;;4.65;;
61840;SDS011;47773;53.174;6.614;2022-11-25T04:15:34;14.63;;;4.25;;
61840;SDS011;47773;53.174;6.614;2022-11-25T04:18:00;18.58;;;4.75;;
61840;SDS011;47773;53.174;6.614;2022-11-25T04:20:25;17.95;;;5.03;;
61840;SDS011;47773;53.174;6.614;2022-11-25T04:22:51;25.13;;;4.97;;
61840;SDS011;47773;53.174;6.614;2022-11-25T04:25:17;17.40;;;4.90;;
61840;SDS011;47773;53.174;6.614;2022-11-25T04:27:42;16.08;;;4.55;;
61840;SDS011;47773;53.174;6.614;2022-11-25T04:30:09;19.55;;;4.88;;
61840;SDS011;47773;53.174;6.614;2022-11-25T04:32:37;22.13;;;5.30;;
61840;SDS011;47773;53.174;6.614;2022-11-25T04:35:03;17.55;;;4.88;;
61840;SDS011;47773;53.174;6.614;2022-11-25T04:37:29;18.10;;;5.00;;
61840;SDS011;47773;53.174;6.614;2022-11-25T04:39:55;22.35;;;5.65;;
61840;SDS011;47773;53.174;6.614;2022-11-25T04:42:20;24.50;;;5.68;;
61840;SDS011;47773;53.174;6.614;2022-11-25T04:44:55;18.95;;;5.57;;
61840;SDS011;47773;53.174;6.614;2022-11-25T04:47:21;20.42;;;5.35;;
61840;SDS011;47773;53.174;6.614;2022-11-25T04:49:47;17.75;;;5.00;;
61840;SDS011;47773;53.174;6.614;2022-11-25T04:52:12;22.30;;;5.75;;
61840;SDS011;47773;53.174;6.614;2022-11-25T04:54:38;21.17;;;5.80;;
61840;SDS011;47773;53.174;6.614;2022-11-25T04:57:04;18.50;;;5.53;;
61840;SDS011;47773;53.174;6.614;2022-11-25T04:59:29;18.20;;;6.25;;
61840;SDS011;47773;53.174;6.614;2022-11-25T05:02:14;22.73;;;5.75;;
61840;SDS011;47773;53.174;6.614;2022-11-25T05:04:45;17.83;;;6.03;;
61840;SDS011;47773;53.174;6.614;2022-11-25T05:07:12;16.73;;;5.40;;
61840;SDS011;47773;53.174;6.614;2022-11-25T05:09:39;18.95;;;5.85;;
61840;SDS011;47773;53.174;6.614;2022-11-25T05:12:05;14.77;;;5.30;;
61840;SDS011;47773;53.174;6.614;2022-11-25T05:14:32;18.75;;;5.53;;
61840;SDS011;47773;53.174;6.614;2022-11-25T05:17:00;19.52;;;6.13;;
61840;SDS011;47773;53.174;6.614;2022-11-25T05:19:29;28.35;;;5.90;;
61840;SDS011;47773;53.174;6.614;2022-11-25T05:21:55;17.77;;;6.53;;
61840;SDS011;47773;53.174;6.614;2022-11-25T05:24:21;23.58;;;6.00;;
61840;SDS011;47773;53.174;6.614;2022-11-25T05:26:47;16.42;;;5.53;;
61840;SDS011;47773;53.174;6.614;2022-11-25T05:29:13;16.45;;;6.05;;
61840;SDS011;47773;53.174;6.614;2022-11-25T05:31:38;20.23;;;6.28;;
61840;SDS011;47773;53.174;6.614;2022-11-25T05:34:04;20.52;;;6.00;;
61840;SDS011;47773;53.174;6.614;2022-11-25T05:36:30;22.05;;;6.63;;
61840;SDS011;47773;53.174;6.614;2022-11-25T05:38:56;17.00;;;5.88;;
61840;SDS011;47773;53.174;6.614;2022-11-25T05:41:22;16.45;;;5.75;;
61840;SDS011;47773;53.174;6.614;2022-11-25T05:43:48;23.42;;;6.40;;
61840;SDS011;47773;53.174;6.614;2022-11-25T05:46:13;17.38;;;6.25;;
61840;SDS011;47773;53.174;6.614;2022-11-25T05:48:39;19.25;;;6.25;;
61840;SDS011;47773;53.174;6.614;2022-11-25T05:51:04;20.70;;;5.82;;
61840;SDS011;47773;53.174;6.614;2022-11-25T05:53:30;19.83;;;6.38;;
61840;SDS011;47773;53.174;6.614;2022-11-25T05:55:57;15.43;;;6.30;;
61840;SDS011;47773;53.174;6.614;2022-11-25T05:58:24;19.92;;;6.50;;
61840;SDS011;47773;53.174;6.614;2022-11-25T06:00:50;21.45;;;6.53;;
61840;SDS011;47773;53.174;6.614;2022-11-25T06:03:15;20.85;;;6.32;;
61840;SDS011;47773;53.174;6.614;2022-11-25T06:05:42;19.45;;;6.47;;
61840;SDS011;47773;53.174;6.614;2022-11-25T06:08:08;15.45;;;5.70;;
61840;SDS011;47773;53.174;6.614;2022-11-25T06:10:36;26.80;;;6.57;;
61840;SDS011;47773;53.174;6.614;2022-11-25T06:13:03;18.75;;;6.47;;
61840;SDS011;47773;53.174;6.614;2022-11-25T06:15:29;18.15;;;6.38;;
61840;SDS011;47773;53.174;6.614;2022-11-25T06:17:55;25.20;;;6.75;;
61840;SDS011;47773;53.174;6.614;2022-11-25T06:20:20;21.77;;;6.72;;
61840;SDS011;47773;53.174;6.614;2022-11-25T06:22:46;20.98;;;6.38;;
61840;SDS011;47773;53.174;6.614;2022-11-25T06:25:11;20.75;;;6.70;;
61840;SDS011;47773;53.174;6.614;2022-11-25T06:27:37;16.67;;;6.05;;
61840;SDS011;47773;53.174;6.614;2022-11-25T06:30:03;24.10;;;6.57;;
61840;SDS011;47773;53.174;6.614;2022-11-25T06:32:29;20.08;;;6.35;;
61840;SDS011;47773;53.174;6.614;2022-11-25T06:34:54;20.38;;;6.40;;
61840;SDS011;47773;53.174;6.614;2022-11-25T06:37:20;24.88;;;6.75;;
61840;SDS011;47773;53.174;6.614;2022-11-25T06:39:46;15.70;;;6.00;;
61840;SDS011;47773;53.174;6.614;2022-11-25T06:42:11;16.52;;;6.68;;
61840;SDS011;47773;53.174;6.614;2022-11-25T06:44:37;16.70;;;5.75;;
61840;SDS011;47773;53.174;6.614;2022-11-25T06:47:03;12.75;;;5.95;;
61840;SDS011;47773;53.174;6.614;2022-11-25T06:49:28;17.92;;;6.10;;
61840;SDS011;47773;53.174;6.614;2022-11-25T06:51:54;14.00;;;5.18;;
61840;SDS011;47773;53.174;6.614;2022-11-25T06:54:20;14.73;;;5.47;;
61840;SDS011;47773;53.174;6.614;2022-11-25T06:56:46;15.20;;;5.35;;
61840;SDS011;47773;53.174;6.614;2022-11-25T06:59:15;18.58;;;5.85;;
61840;SDS011;47773;53.174;6.614;2022-11-25T07:01:42;20.45;;;5.90;;
61840;SDS011;47773;53.174;6.614;2022-11-25T07:04:08;16.67;;;5.55;;
61840;SDS011;47773;53.174;6.614;2022-11-25T07:06:34;21.35;;;5.25;;
61840;SDS011;47773;53.174;6.614;2022-11-25T07:09:00;14.48;;;5.50;;
61840;SDS011;47773;53.174;6.614;2022-11-25T07:11:30;19.00;;;5.15;;
61840;SDS011;47773;53.174;6.614;2022-11-25T07:13:58;14.65;;;4.97;;
61840;SDS011;47773;53.174;6.614;2022-11-25T07:16:29;17.52;;;4.85;;
61840;SDS011;47773;53.174;6.614;2022-11-25T07:18:55;14.75;;;4.85;;
61840;SDS011;47773;53.174;6.614;2022-11-25T07:21:23;14.18;;;4.53;;
61840;SDS011;47773;53.174;6.614;2022-11-25T07:23:49;12.10;;;4.38;;
61840;SDS011;47773;53.174;6.614;2022-11-25T07:26:17;15.93;;;4.72;;
61840;SDS011;47773;53.174;6.614;2022-11-25T07:28:50;15.10;;;4.15;;
61840;SDS011;47773;53.174;6.614;2022-11-25T07:31:21;12.93;;;4.00;;
61840;SDS011;47773;53.174;6.614;2022-11-25T07:33:58;15.90;;;3.88;;
61840;SDS011;47773;53.174;6.614;2022-11-25T07:36:25;11.05;;;3.65;;
61840;SDS011;47773;53.174;6.614;2022-11-25T07:38:51;12.43;;;3.92;;
61840;SDS011;47773;53.174;6.614;2022-11-25T07:41:21;13.20;;;4.05;;
61840;SDS011;47773;53.174;6.614;2022-11-25T07:43:50;14.77;;;4.22;;
61840;SDS011;47773;53.174;6.614;2022-11-25T07:46:21;16.13;;;3.38;;
61840;SDS011;47773;53.174;6.614;2022-11-25T07:49:01;11.90;;;3.55;;
61840;SDS011;47773;53.174;6.614;2022-11-25T07:51:32;10.75;;;3.53;;
61840;SDS011;47773;53.174;6.614;2022-11-25T07:54:00;11.80;;;3.47;;
61840;SDS011;47773;53.174;6.614;2022-11-25T07:56:27;10.68;;;3.22;;
61840;SDS011;47773;53.174;6.614;2022-11-25T07:58:53;13.15;;;3.00;;
61840;SDS011;47773;53.174;6.614;2022-11-25T08:01:19;17.17;;;3.17;;
61840;SDS011;47773;53.174;6.614;2022-11-25T08:03:46;10.90;;;3.42;;
61840;SDS011;47773;53.174;6.614;2022-11-25T08:06:14;11.27;;;3.20;;
61840;SDS011;47773;53.174;6.614;2022-11-25T08:08:42;13.15;;;3.45;;
61840;SDS011;47773;53.174;6.614;2022-11-25T08:11:16;14.35;;;3.03;;
61840;SDS011;47773;53.174;6.614;2022-11-25T08:13:46;13.40;;;2.92;;
61840;SDS011;47773;53.174;6.614;2022-11-25T08:16:13;10.70;;;2.78;;
61840;SDS011;47773;53.174;6.614;2022-11-25T08:18:40;7.25;;;2.50;;
61840;SDS011;47773;53.174;6.614;2022-11-25T08:21:07;9.70;;;2.80;;
61840;SDS011;47773;53.174;6.614;2022-11-25T08:23:34;11.40;;;2.85;;
61840;SDS011;47773;53.174;6.614;2022-11-25T08:26:05;8.52;;;2.58;;
61840;SDS011;47773;53.174;6.614;2022-11-25T08:28:32;8.43;;;2.55;;
61840;SDS011;47773;53.174;6.614;2022-11-25T08:31:02;10.35;;;2.50;;
61840;SDS011;47773;53.174;6.614;2022-11-25T08:33:27;8.93;;;2.95;;
61840;SDS011;47773;53.174;6.614;2022-11-25T08:35:53;9.77;;;2.70;;
61840;SDS011;47773;53.174;6.614;2022-11-25T08:38:19;13.55;;;3.05;;
61840;SDS011;47773;53.174;6.614;2022-11-25T08:40:45;11.55;;;3.40;;
61840;SDS011;47773;53.174;6.614;2022-11-25T08:43:11;10.38;;;2.65;;
61840;SDS011;47773;53.174;6.614;2022-11-25T08:45:37;8.30;;;2.60;;
61840;SDS011;47773;53.174;6.614;2022-11-25T08:48:03;15.98;;;3.05;;
61840;SDS011;47773;53.174;6.614;2022-11-25T08:50:29;14.27;;;2.78;;
61840;SDS011;47773;53.174;6.614;2022-11-25T08:52:56;11.45;;;3.13;;
61840;SDS011;47773;53.174;6.614;2022-11-25T08:55:22;11.80;;;2.80;;
61840;SDS011;47773;53.174;6.614;2022-11-25T08:57:50;8.57;;;2.70;;
61840;SDS011;47773;53.174;6.614;2022-11-25T09:00:16;13.10;;;3.17;;
61840;SDS011;47773;53.174;6.614;2022-11-25T09:02:42;16.48;;;2.90;;
61840;SDS011;47773;53.174;6.614;2022-11-25T09:05:10;9.40;;;2.70;;
61840;SDS011;47773;53.174;6.614;2022-11-25T09:07:37;10.52;;;2.92;;
61840;SDS011;47773;53.174;6.614;2022-11-25T09:10:03;8.85;;;2.92;;
61840;SDS011;47773;53.174;6.614;2022-11-25T09:12:30;17.10;;;3.53;;
61840;SDS011;47773;53.174;6.614;2022-11-25T09:14:56;13.48;;;3.38;;
61840;SDS011;47773;53.174;6.614;2022-11-25T09:17:21;10.65;;;3.40;;
61840;SDS011;47773;53.174;6.614;2022-11-25T09:19:47;9.68;;;3.13;;
61840;SDS011;47773;53.174;6.614;2022-11-25T09:22:13;14.00;;;3.53;;
61840;SDS011;47773;53.174;6.614;2022-11-25T09:24:38;10.02;;;3.08;;
61840;SDS011;47773;53.174;6.614;2022-11-25T09:27:05;11.13;;;2.90;;
61840;SDS011;47773;53.174;6.614;2022-11-25T09:29:31;16.13;;;3.58;;
61840;SDS011;47773;53.174;6.614;2022-11-25T09:31:57;10.15;;;2.88;;
61840;SDS011;47773;53.174;6.614;2022-11-25T09:34:22;11.15;;;3.53;;
61840;SDS011;47773;53.174;6.614;2022-11-25T09:36:48;10.15;;;3.05;;
61840;SDS011;47773;53.174;6.614;2022-11-25T09:39:14;13.45;;;3.10;;
61840;SDS011;47773;53.174;6.614;2022-11-25T09:44:43;11.48;;;3.22;;
61840;SDS011;47773;53.174;6.614;2022-11-25T09:50:53;9.18;;;3.17;;
61840;SDS011;47773;53.174;6.614;2022-11-25T09:53:43;7.97;;;2.88;;
61840;SDS011;47773;53.174;6.614;2022-11-25T09:56:27;8.75;;;2.92;;
61840;SDS011;47773;53.174;6.614;2022-11-25T09:59:27;7.40;;;2.50;;
61840;SDS011;47773;53.174;6.614;2022-11-25T10:02:12;10.57;;;3.55;;
61840;SDS011;47773;53.174;6.614;2022-11-25T10:04:46;10.27;;;3.00;;
61840;SDS011;47773;53.174;6.614;2022-11-25T10:07:19;11.15;;;3.22;;
61840;SDS011;47773;53.174;6.614;2022-11-25T10:09:52;9.77;;;3.25;;
61840;SDS011;47773;53.174;6.614;2022-11-25T10:15:52;11.20;;;3.10;;
61840;SDS011;47773;53.174;6.614;2022-11-25T10:17:52;11.00;;;3.53;;
61840;SDS011;47773;53.174;6.614;2022-11-25T10:20:23;6.93;;;2.70;;
61840;SDS011;47773;53.174;6.614;2022-11-25T10:22:51;11.07;;;3.45;;
61840;SDS011;47773;53.174;6.614;2022-11-25T10:25:24;11.00;;;2.95;;
61840;SDS011;47773;53.174;6.614;2022-11-25T10:28:02;11.18;;;3.10;;
61840;SDS011;47773;53.174;6.614;2022-11-25T10:30:41;9.02;;;2.83;;
61840;SDS011;47773;53.174;6.614;2022-11-25T10:35:44;9.63;;;2.78;;
61840;SDS011;47773;53.174;6.614;2022-11-25T10:38:26;15.30;;;3.38;;
61840;SDS011;47773;53.174;6.614;2022-11-25T10:41:04;9.05;;;2.63;;
61840;SDS011;47773;53.174;6.614;2022-11-25T10:43:30;8.98;;;2.58;;
61840;SDS011;47773;53.174;6.614;2022-11-25T10:51:30;12.57;;;3.00;;
61840;SDS011;47773;53.174;6.614;2022-11-25T10:56:49;10.63;;;2.47;;
61840;SDS011;47773;53.174;6.614;2022-11-25T10:59:28;12.05;;;2.53;;
61840;SDS011;47773;53.174;6.614;2022-11-25T11:07:37;12.45;;;2.88;;
61840;SDS011;47773;53.174;6.614;2022-11-25T11:10:12;9.32;;;2.35;;
61840;SDS011;47773;53.174;6.614;2022-11-25T11:13:01;16.55;;;3.53;;
61840;SDS011;47773;53.174;6.614;2022-11-25T11:15:28;10.75;;;2.67;;
61840;SDS011;47773;53.174;6.614;2022-11-25T11:17:56;8.43;;;2.10;;
61840;SDS011;47773;53.174;6.614;2022-11-25T11:20:24;11.52;;;2.42;;
61840;SDS011;47773;53.174;6.614;2022-11-25T11:27:45;11.70;;;2.53;;
61840;SDS011;47773;53.174;6.614;2022-11-25T11:30:15;16.23;;;2.72;;
61840;SDS011;47773;53.174;6.614;2022-11-25T11:32:59;11.05;;;2.47;;
61840;SDS011;47773;53.174;6.614;2022-11-25T11:37:58;9.07;;;2.47;;
61840;SDS011;47773;53.174;6.614;2022-11-25T11:52:13;8.95;;;2.42;;
61840;SDS011;47773;53.174;6.614;2022-11-25T11:54:53;8.05;;;2.17;;
61840;SDS011;47773;53.174;6.614;2022-11-25T11:57:34;12.23;;;2.65;;
61840;SDS011;47773;53.174;6.614;2022-11-25T12:00:12;10.35;;;1.95;;
61840;SDS011;47773;53.174;6.614;2022-11-25T12:05:35;9.98;;;2.22;;
61840;SDS011;47773;53.174;6.614;2022-11-25T12:08:15;14.23;;;2.70;;
61840;SDS011;47773;53.174;6.614;2022-11-25T12:11:10;13.27;;;2.20;;
61840;SDS011;47773;53.174;6.614;2022-11-25T12:13:44;15.05;;;2.40;;
61840;SDS011;47773;53.174;6.614;2022-11-25T12:16:44;9.25;;;2.00;;
61840;SDS011;47773;53.174;6.614;2022-11-25T12:22:13;15.38;;;2.05;;
61840;SDS011;47773;53.174;6.614;2022-11-25T12:27:32;12.68;;;2.30;;
61840;SDS011;47773;53.174;6.614;2022-11-25T12:30:06;12.80;;;2.38;;
61840;SDS011;47773;53.174;6.614;2022-11-25T12:37:38;11.75;;;1.77;;
61840;SDS011;47773;53.174;6.614;2022-11-25T12:42:39;14.38;;;2.15;;
61840;SDS011;47773;53.174;6.614;2022-11-25T12:47:39;17.83;;;2.88;;
61840;SDS011;47773;53.174;6.614;2022-11-25T12:50:05;14.38;;;2.00;;
61840;SDS011;47773;53.174;6.614;2022-11-25T12:55:27;18.05;;;2.63;;
61840;SDS011;47773;53.174;6.614;2022-11-25T13:06:15;22.38;;;2.70;;
61840;SDS011;47773;53.174;6.614;2022-11-25T13:09:07;15.55;;;2.40;;
61840;SDS011;47773;53.174;6.614;2022-11-25T13:14:58;8.73;;;1.52;;
61840;SDS011;47773;53.174;6.614;2022-11-25T13:17:38;27.95;;;3.35;;
61840;SDS011;47773;53.174;6.614;2022-11-25T13:25:34;15.57;;;2.55;;
61840;SDS011;47773;53.174;6.614;2022-11-25T13:30:53;12.90;;;2.95;;
61840;SDS011;47773;53.174;6.614;2022-11-25T13:35:51;18.08;;;2.80;;
61840;SDS011;47773;53.174;6.614;2022-11-25T13:38:37;21.15;;;3.15;;
61840;SDS011;47773;53.174;6.614;2022-11-25T13:43:59;15.90;;;2.15;;
61840;SDS011;47773;53.174;6.614;2022-11-25T13:49:01;21.15;;;2.50;;
61840;SDS011;47773;53.174;6.614;2022-11-25T13:51:29;20.00;;;2.38;;
61840;SDS011;47773;53.174;6.614;2022-11-25T13:53:59;19.90;;;2.13;;
61840;SDS011;47773;53.174;6.614;2022-11-25T13:56:28;11.68;;;2.60;;
61840;SDS011;47773;53.174;6.614;2022-11-25T14:01:49;25.23;;;3.20;;
61840;SDS011;47773;53.174;6.614;2022-11-25T14:04:20;11.90;;;2.65;;
61840;SDS011;47773;53.174;6.614;2022-11-25T14:07:48;12.48;;;1.60;;
61840;SDS011;47773;53.174;6.614;2022-11-25T14:10:17;14.75;;;2.08;;
61840;SDS011;47773;53.174;6.614;2022-11-25T14:18:32;16.77;;;2.22;;
61840;SDS011;47773;53.174;6.614;2022-11-25T14:21:05;15.95;;;2.70;;
61840;SDS011;47773;53.174;6.614;2022-11-25T14:26:33;18.92;;;2.97;;
61840;SDS011;47773;53.174;6.614;2022-11-25T14:29:01;16.20;;;2.78;;
61840;SDS011;47773;53.174;6.614;2022-11-25T14:31:39;16.83;;;2.55;;
61840;SDS011;47773;53.174;6.614;2022-11-25T14:34:16;18.55;;;3.05;;
61840;SDS011;47773;53.174;6.614;2022-11-25T14:36:51;20.17;;;1.95;;
61840;SDS011;47773;53.174;6.614;2022-11-25T14:39:32;17.60;;;2.30;;
61840;SDS011;47773;53.174;6.614;2022-11-25T14:42:14;18.02;;;2.45;;
61840;SDS011;47773;53.174;6.614;2022-11-25T14:44:44;18.65;;;2.08;;
61840;SDS011;47773;53.174;6.614;2022-11-25T14:47:19;13.80;;;2.20;;
61840;SDS011;47773;53.174;6.614;2022-11-25T14:49:47;19.83;;;3.23;;
61840;SDS011;47773;53.174;6.614;2022-11-25T14:52:23;12.07;;;2.55;;
61840;SDS011;47773;53.174;6.614;2022-11-25T14:54:55;15.70;;;2.80;;
61840;SDS011;47773;53.174;6.614;2022-11-25T14:57:26;15.75;;;2.00;;
61840;SDS011;47773;53.174;6.614;2022-11-25T14:59:55;14.48;;;1.90;;
61840;SDS011;47773;53.174;6.614;2022-11-25T15:02:30;14.32;;;1.85;;
61840;SDS011;47773;53.174;6.614;2022-11-25T15:05:00;19.98;;;2.40;;
61840;SDS011;47773;53.174;6.614;2022-11-25T15:07:40;17.73;;;2.55;;
61840;SDS011;47773;53.174;6.614;2022-11-25T15:10:53;16.88;;;2.17;;
61840;SDS011;47773;53.174;6.614;2022-11-25T15:12:55;17.88;;;1.90;;
61840;SDS011;47773;53.174;6.614;2022-11-25T15:15:22;12.57;;;2.70;;
61840;SDS011;47773;53.174;6.614;2022-11-25T15:17:51;15.90;;;2.35;;
61840;SDS011;47773;53.174;6.614;2022-11-25T15:20:19;22.08;;;4.72;;
61840;SDS011;47773;53.174;6.614;2022-11-25T15:22:49;15.80;;;4.15;;
61840;SDS011;47773;53.174;6.614;2022-11-25T15:25:16;17.33;;;2.70;;
61840;SDS011;47773;53.174;6.614;2022-11-25T15:27:43;13.35;;;2.40;;
61840;SDS011;47773;53.174;6.614;2022-11-25T15:32:45;17.23;;;2.80;;
61840;SDS011;47773;53.174;6.614;2022-11-25T15:35:16;16.95;;;4.13;;
61840;SDS011;47773;53.174;6.614;2022-11-25T15:37:43;20.17;;;5.77;;
61840;SDS011;47773;53.174;6.614;2022-11-25T15:43:04;16.85;;;5.25;;
61840;SDS011;47773;53.174;6.614;2022-11-25T15:45:43;23.52;;;5.60;;
61840;SDS011;47773;53.174;6.614;2022-11-25T15:53:31;20.75;;;5.13;;
61840;SDS011;47773;53.174;6.614;2022-11-25T15:56:01;19.52;;;4.90;;
61840;SDS011;47773;53.174;6.614;2022-11-25T15:58:29;19.73;;;4.50;;
61840;SDS011;47773;53.174;6.614;2022-11-25T16:01:02;16.27;;;3.67;;
61840;SDS011;47773;53.174;6.614;2022-11-25T16:03:44;17.60;;;4.10;;
61840;SDS011;47773;53.174;6.614;2022-11-25T16:06:20;22.42;;;7.35;;
61840;SDS011;47773;53.174;6.614;2022-11-25T16:08:51;21.52;;;9.60;;
61840;SDS011;47773;53.174;6.614;2022-11-25T16:11:21;25.15;;;10.60;;
61840;SDS011;47773;53.174;6.614;2022-11-25T16:13:49;19.02;;;7.03;;
61840;SDS011;47773;53.174;6.614;2022-11-25T16:16:20;19.77;;;5.70;;
61840;SDS011;47773;53.174;6.614;2022-11-25T16:26:32;21.33;;;5.88;;
61840;SDS011;47773;53.174;6.614;2022-11-25T16:29:06;21.58;;;6.65;;
61840;SDS011;47773;53.174;6.614;2022-11-25T16:31:46;38.15;;;12.88;;
61840;SDS011;47773;53.174;6.614;2022-11-25T16:34:19;22.48;;;7.13;;
61840;SDS011;47773;53.174;6.614;2022-11-25T16:36:48;23.55;;;6.15;;
61840;SDS011;47773;53.174;6.614;2022-11-25T16:39:14;22.10;;;6.75;;
61840;SDS011;47773;53.174;6.614;2022-11-25T16:41:40;25.70;;;6.88;;
61840;SDS011;47773;53.174;6.614;2022-11-25T16:44:11;19.40;;;6.53;;
61840;SDS011;47773;53.174;6.614;2022-11-25T16:46:45;30.50;;;7.65;;
61840;SDS011;47773;53.174;6.614;2022-11-25T16:49:15;26.58;;;7.45;;
61840;SDS011;47773;53.174;6.614;2022-11-25T16:51:42;25.63;;;6.82;;
61840;SDS011;47773;53.174;6.614;2022-11-25T16:54:08;24.00;;;7.82;;
61840;SDS011;47773;53.174;6.614;2022-11-25T16:56:35;20.10;;;7.10;;
61840;SDS011;47773;53.174;6.614;2022-11-25T16:59:03;26.10;;;8.10;;
61840;SDS011;47773;53.174;6.614;2022-11-25T17:01:29;24.52;;;7.47;;